createdAt,value
2023-02-25T00:01:57.778Z,96407.66
2023-02-25T00:04:32.325Z,96414.63
2023-02-25T00:07:00.953Z,96404.75
2023-02-25T00:09:29.851Z,96412.25
2023-02-25T00:11:59.667Z,96411.88
2023-02-25T00:14:28.503Z,96413.38
2023-02-25T00:16:57.403Z,96406.69
2023-02-25T00:19:26.883Z,96413.28
2023-02-25T00:21:55.381Z,96412.91
2023-02-25T00:24:24.055Z,96415.38
2023-02-25T00:26:52.532Z,96427.47
2023-02-25T00:29:22.936Z,96414.91
2023-02-25T00:31:51.486Z,96408.63
2023-02-25T00:34:20.256Z,96424.06
2023-02-25T00:36:50.077Z,96410.88
2023-02-25T00:39:18.873Z,96409.66
2023-02-25T00:41:47.427Z,96410.09
2023-02-25T00:44:16.033Z,96412.03
2023-02-25T00:46:45.888Z,96406.09
2023-02-25T00:49:27.009Z,96415.63
2023-02-25T00:52:00.153Z,96419.47
2023-02-25T00:54:29.166Z,96416.75
2023-02-25T00:56:57.620Z,96416.69
2023-02-25T00:59:26.105Z,96421.25
2023-02-25T01:01:56.039Z,96427.19
2023-02-25T01:04:25.142Z,96419.31
2023-02-25T01:06:54.974Z,96418.81
2023-02-25T01:09:23.501Z,96405.69
2023-02-25T01:11:52.389Z,96402.41
2023-02-25T01:14:22.526Z,96412.59
2023-02-25T01:16:52.680Z,96417.53
2023-02-25T01:19:24.947Z,96429.38
2023-02-25T01:21:55.381Z,96433.56
2023-02-25T01:24:25.500Z,96440.38
2023-02-25T01:26:58.004Z,96428.13
2023-02-25T01:29:28.901Z,96425.72
2023-02-25T01:31:59.373Z,96426.19
2023-02-25T01:34:30.269Z,96423.84
2023-02-25T01:36:59.193Z,96429.78
2023-02-25T01:39:29.069Z,96428.19
2023-02-25T01:41:59.782Z,96438.31
2023-02-25T01:44:32.049Z,96430.66
2023-02-25T01:47:01.322Z,96430.66
2023-02-25T01:49:36.333Z,96434.88
2023-02-25T01:52:09.568Z,96450.34
2023-02-25T01:54:39.464Z,96452.81
2023-02-25T01:57:09.914Z,96454.78
2023-02-25T01:59:40.377Z,96447.72
2023-02-25T02:02:09.610Z,96449.19
2023-02-25T02:04:42.314Z,96449.88
2023-02-25T02:07:10.752Z,96446.94
2023-02-25T02:09:40.265Z,96446.09
2023-02-25T02:12:09.203Z,96441.88
2023-02-25T02:14:42.967Z,96438.31
2023-02-25T02:17:21.350Z,96433.22
2023-02-25T02:20:09.887Z,96440.09
2023-02-25T02:22:47.779Z,96436.31
2023-02-25T02:25:41.325Z,96428.88
2023-02-25T02:28:32.562Z,96448.22
2023-02-25T02:31:29.732Z,96439.50
2023-02-25T02:34:10.058Z,96440.94
2023-02-25T02:36:44.610Z,96435.28
2023-02-25T02:39:18.323Z,96445.19
2023-02-25T02:41:51.226Z,96441.69
2023-02-25T02:44:28.241Z,96445.53
2023-02-25T02:47:02.169Z,96453.78
2023-02-25T02:49:37.175Z,96456.41
2023-02-25T02:52:14.984Z,96458.13
2023-02-25T02:54:50.597Z,96462.06
2023-02-25T02:57:22.337Z,96465.28
2023-02-25T02:59:54.855Z,96448.28
2023-02-25T03:02:31.238Z,96457.56
2023-02-25T03:05:01.719Z,96460.03
2023-02-25T03:07:33.544Z,96465.16
2023-02-25T03:10:07.840Z,96464.34
2023-02-25T03:12:38.741Z,96473.50
2023-02-25T03:15:08.930Z,96464.06
2023-02-25T03:17:44.122Z,96465.16
2023-02-25T03:20:18.199Z,96472.47
2023-02-25T03:22:51.171Z,96478.59
2023-02-25T03:25:22.482Z,96471.91
2023-02-25T03:27:53.530Z,96473.91
2023-02-25T03:30:30.221Z,96488.56
2023-02-25T03:33:07.686Z,96485.13
2023-02-25T03:35:38.486Z,96490.69
2023-02-25T03:38:19.128Z,96492.28
2023-02-25T03:40:50.347Z,96488.44
2023-02-25T03:43:23.795Z,96498.63
2023-02-25T03:45:52.636Z,96487.47
2023-02-25T03:48:23.644Z,96490.84
2023-02-25T03:50:59.306Z,96496.06
2023-02-25T03:53:28.061Z,96490.84
2023-02-25T03:56:08.116Z,96491.13
2023-02-25T03:58:39.458Z,96486.91
2023-02-25T04:01:11.896Z,96491.31
2023-02-25T04:03:41.788Z,96494.63
2023-02-25T04:06:12.647Z,96496.50
2023-02-25T04:08:41.660Z,96502.63
2023-02-25T04:11:10.042Z,96511.38
2023-02-25T04:13:39.542Z,96523.75
2023-02-25T04:16:09.226Z,96523.00
2023-02-25T04:18:38.099Z,96521.41
2023-02-25T04:21:10.810Z,96522.03
2023-02-25T04:23:39.210Z,96522.03
2023-02-25T04:26:07.645Z,96514.41
2023-02-25T04:28:36.114Z,96526.50
2023-02-25T04:31:04.816Z,96519.88
2023-02-25T04:33:33.824Z,96515.75
2023-02-25T04:36:02.274Z,96521.75
2023-02-25T04:38:32.013Z,96512.69
2023-02-25T04:41:00.402Z,96517.25
2023-02-25T04:43:28.807Z,96507.06
2023-02-25T04:45:57.314Z,96506.75
2023-02-25T04:48:25.846Z,96512.81
2023-02-25T04:50:54.305Z,96520.25
2023-02-25T04:53:22.695Z,96521.97
2023-02-25T04:55:52.517Z,96521.41
2023-02-25T04:58:20.947Z,96525.53
2023-02-25T05:00:49.452Z,96524.59
2023-02-25T05:03:17.858Z,96524.47
2023-02-25T05:05:46.302Z,96525.75
2023-02-25T05:08:14.781Z,96530.50
2023-02-25T05:10:43.231Z,96528.16
2023-02-25T05:13:12.948Z,96522.44
2023-02-25T05:15:41.531Z,96533.25
2023-02-25T05:18:10.269Z,96531.84
2023-02-25T05:20:41.308Z,96523.28
2023-02-25T05:23:10.470Z,96535.84
2023-02-25T05:25:41.221Z,96532.47
2023-02-25T05:28:10.308Z,96534.16
2023-02-25T05:30:40.374Z,96536.88
2023-02-25T05:33:09.828Z,96523.31
2023-02-25T05:35:40.775Z,96526.50
2023-02-25T05:38:09.379Z,96522.38
2023-02-25T05:40:39.817Z,96527.78
2023-02-25T05:43:08.994Z,96524.00
2023-02-25T05:45:37.391Z,96524.91
2023-02-25T05:48:07.579Z,96524.34
2023-02-25T05:50:41.722Z,96529.16
2023-02-25T05:53:10.756Z,96530.78
2023-02-25T05:55:42.697Z,96537.91
2023-02-25T05:58:11.384Z,96540.59
2023-02-25T06:00:40.439Z,96543.13
2023-02-25T06:03:10.340Z,96544.00
2023-02-25T06:05:41.414Z,96543.91
2023-02-25T06:08:09.984Z,96554.06
2023-02-25T06:10:39.851Z,96556.38
2023-02-25T06:13:08.718Z,96560.63
2023-02-25T06:15:38.363Z,96556.56
2023-02-25T06:18:07.161Z,96558.94
2023-02-25T06:20:36.983Z,96557.44
2023-02-25T06:23:05.430Z,96571.81
2023-02-25T06:25:33.989Z,96570.28
2023-02-25T06:28:03.122Z,96567.81
2023-02-25T06:30:32.303Z,96565.31
2023-02-25T06:33:00.734Z,96573.66
2023-02-25T06:35:30.420Z,96574.38
2023-02-25T06:38:02.132Z,96574.53
2023-02-25T06:40:30.559Z,96585.25
2023-02-25T06:42:59.051Z,96585.06
2023-02-25T06:45:27.687Z,96590.84
2023-02-25T06:47:56.055Z,96578.13
2023-02-25T06:50:24.556Z,96588.47
2023-02-25T06:52:53.054Z,96578.22
2023-02-25T06:55:22.764Z,96572.13
2023-02-25T06:57:51.228Z,96579.50
2023-02-25T07:00:20.250Z,96572.63
2023-02-25T07:02:48.661Z,96568.50
2023-02-25T07:05:17.349Z,96582.19
2023-02-25T07:07:45.820Z,96588.94
2023-02-25T07:10:14.224Z,96585.69
2023-02-25T07:12:43.967Z,96583.91
2023-02-25T07:15:12.408Z,96590.72
2023-02-25T07:17:40.823Z,96588.31
2023-02-25T07:20:10.834Z,96587.28
2023-02-25T07:22:39.415Z,96589.41
2023-02-25T07:25:09.367Z,96587.22
2023-02-25T07:27:37.911Z,96586.38
2023-02-25T07:30:09.568Z,96597.97
2023-02-25T07:32:38.170Z,96606.44
2023-02-25T07:35:07.891Z,96615.72
2023-02-25T07:37:36.461Z,96601.22
2023-02-25T07:40:12.868Z,96591.78
2023-02-25T07:42:41.574Z,96600.28
2023-02-25T07:45:12.584Z,96598.81
2023-02-25T07:47:41.095Z,96607.91
2023-02-25T07:50:12.899Z,96601.16
2023-02-25T07:52:41.563Z,96600.97
2023-02-25T07:55:11.084Z,96594.28
2023-02-25T07:57:39.565Z,96594.00
2023-02-25T08:00:10.308Z,96591.03
2023-02-25T08:02:44.391Z,96580.91
2023-02-25T08:05:13.105Z,96587.19
2023-02-25T08:07:41.705Z,96590.28
2023-02-25T08:10:11.314Z,96596.88
2023-02-25T08:12:39.807Z,96593.97
2023-02-25T08:15:09.102Z,96589.13
2023-02-25T08:17:37.542Z,96591.25
2023-02-25T08:20:09.828Z,96592.84
2023-02-25T08:22:39.166Z,96585.69
2023-02-25T08:25:08.007Z,96589.91
2023-02-25T08:27:36.523Z,96596.22
2023-02-25T08:30:08.482Z,96586.03
2023-02-25T08:32:37.377Z,96596.38
2023-02-25T08:35:07.807Z,96603.09
2023-02-25T08:37:36.241Z,96611.09
2023-02-25T08:40:09.528Z,96607.41
2023-02-25T08:42:38.018Z,96599.91
2023-02-25T08:45:07.419Z,96607.41
2023-02-25T08:47:35.880Z,96606.31
2023-02-25T08:50:05.485Z,96599.69
2023-02-25T08:52:35.407Z,96602.59
2023-02-25T08:55:05.204Z,96604.38
2023-02-25T08:57:34.052Z,96610.75
2023-02-25T09:00:05.917Z,96602.50
2023-02-25T09:02:34.915Z,96607.78
2023-02-25T09:05:04.318Z,96613.47
2023-02-25T09:07:32.797Z,96609.50
2023-02-25T09:10:03.444Z,96611.03
2023-02-25T09:12:32.064Z,96614.13
2023-02-25T09:15:00.571Z,96603.28
2023-02-25T09:17:29.041Z,96601.38
2023-02-25T09:19:58.433Z,96604.69
2023-02-25T09:22:26.923Z,96603.06
2023-02-25T09:26:09.831Z,96592.72
2023-02-25T09:28:38.348Z,96599.56
2023-02-25T09:31:07.005Z,96591.97
2023-02-25T09:33:37.577Z,96594.00
2023-02-25T09:36:08.472Z,96585.56
2023-02-25T09:38:37.577Z,96599.94
2023-02-25T09:41:25.481Z,96592.56
2023-02-25T09:44:02.960Z,96595.34
2023-02-25T09:46:33.247Z,96597.78
2023-02-25T09:49:04.360Z,96592.22
2023-02-25T09:51:36.823Z,96588.31
2023-02-25T09:54:15.112Z,96583.97
2023-02-25T09:56:45.166Z,96590.69
2023-02-25T09:59:15.533Z,96588.59
2023-02-25T10:01:48.186Z,96579.69
2023-02-25T10:04:23.666Z,96593.03
2023-02-25T10:06:55.987Z,96589.75
2023-02-25T10:09:31.392Z,96589.28
2023-02-25T10:12:13.320Z,96590.41
2023-02-25T10:15:01.781Z,96583.53
2023-02-25T10:17:44.325Z,96587.19
2023-02-25T10:20:39.758Z,96582.91
2023-02-25T10:23:18.564Z,96577.72
2023-02-25T10:25:59.071Z,96585.25
2023-02-25T10:28:32.310Z,96575.94
2023-02-25T10:31:06.536Z,96573.41
2023-02-25T10:33:37.664Z,96575.28
2023-02-25T10:36:10.253Z,96572.38
2023-02-25T10:38:43.142Z,96578.06
2023-02-25T10:41:12.102Z,96564.94
2023-02-25T10:43:42.378Z,96569.00
2023-02-25T10:46:16.687Z,96563.00
2023-02-25T10:48:49.037Z,96561.56
2023-02-25T10:51:17.938Z,96563.34
2023-02-25T10:54:05.033Z,96546.00
2023-02-25T10:56:42.659Z,96553.25
2023-02-25T10:59:30.064Z,96550.28
2023-02-25T11:02:01.136Z,96554.03
2023-02-25T11:04:35.559Z,96555.66
2023-02-25T11:07:25.727Z,96553.19
2023-02-25T11:10:14.961Z,96558.06
2023-02-25T11:12:46.024Z,96548.69
2023-02-25T11:15:43.696Z,96553.00
2023-02-25T11:18:22.320Z,96564.38
2023-02-25T11:20:54.602Z,96563.41
2023-02-25T11:23:28.097Z,96557.81
2023-02-25T11:25:57.604Z,96561.69
2023-02-25T11:28:32.258Z,96559.22
2023-02-25T11:31:11.779Z,96555.25
2023-02-25T11:33:43.776Z,96552.72
2023-02-25T11:36:12.789Z,96551.16
2023-02-25T11:38:43.452Z,96551.78
2023-02-25T11:41:21.659Z,96550.59
2023-02-25T11:43:50.982Z,96555.94
2023-02-25T11:46:25.444Z,96553.47
2023-02-25T11:48:58.425Z,96550.22
2023-02-25T11:51:29.916Z,96549.34
2023-02-25T11:54:19.199Z,96539.97
2023-02-25T11:59:31.430Z,96547.97
2023-02-25T12:02:17.270Z,96550.47
2023-02-25T12:04:57.570Z,96545.72
2023-02-25T12:08:05.188Z,96540.28
2023-02-25T12:11:12.765Z,96542.31
2023-02-25T12:14:05.497Z,96546.91
2023-02-25T12:17:05.597Z,96548.69
2023-02-25T12:20:07.418Z,96548.81
2023-02-25T12:23:01.225Z,96555.34
2023-02-25T12:25:37.523Z,96545.28
2023-02-25T12:28:28.336Z,96551.22
2023-02-25T12:31:16.770Z,96552.66
2023-02-25T12:34:12.440Z,96555.53
2023-02-25T12:37:08.763Z,96562.28
2023-02-25T12:40:01.533Z,96553.47
2023-02-25T12:42:58.064Z,96546.75
2023-02-25T12:45:51.579Z,96539.69
2023-02-25T12:48:50.952Z,96543.63
2023-02-25T12:51:46.752Z,96541.06
2023-02-25T12:54:32.734Z,96534.13
2023-02-25T12:57:19.498Z,96527.38
2023-02-25T13:00:10.193Z,96520.22
2023-02-25T13:02:57.064Z,96529.72
2023-02-25T13:05:49.537Z,96524.69
2023-02-25T13:08:40.146Z,96521.69
2023-02-25T13:11:24.341Z,96528.69
2023-02-25T13:14:09.735Z,96529.88
2023-02-25T13:16:59.461Z,96515.63
2023-02-25T13:19:55.728Z,96511.44
2023-02-25T13:22:41.011Z,96511.13
2023-02-25T13:25:15.580Z,96510.84
2023-02-25T13:28:02.477Z,96516.03
2023-02-25T13:30:42.727Z,96519.66
2023-02-25T13:33:59.099Z,96539.38
2023-02-25T13:36:49.910Z,96533.00
2023-02-25T13:39:37.553Z,96542.75
2023-02-25T13:42:38.187Z,96537.16
2023-02-25T13:45:57.559Z,96544.25
2023-02-25T13:49:05.781Z,96546.06
2023-02-25T13:52:04.910Z,96545.44
2023-02-25T13:54:58.661Z,96534.13
2023-02-25T13:57:47.618Z,96537.25
2023-02-25T14:00:46.386Z,96532.31
2023-02-25T14:04:01.415Z,96537.91
2023-02-25T14:06:44.170Z,96537.81
2023-02-25T14:09:42.457Z,96539.06
2023-02-25T14:12:24.989Z,96531.59
2023-02-25T14:15:06.769Z,96525.75
2023-02-25T14:17:54.365Z,96531.78
2023-02-25T14:20:36.923Z,96537.25
2023-02-25T14:23:11.287Z,96533.09
2023-02-25T14:25:48.357Z,96530.97
2023-02-25T14:28:30.663Z,96526.34
2023-02-25T14:31:11.259Z,96529.19
2023-02-25T14:33:55.686Z,96518.69
2023-02-25T14:36:49.804Z,96528.34
2023-02-25T14:39:33.357Z,96524.03
2023-02-25T14:42:17.800Z,96527.72
2023-02-25T14:44:56.203Z,96522.34
2023-02-25T14:47:29.741Z,96516.16
2023-02-25T14:50:04.876Z,96524.28
2023-02-25T14:52:51.690Z,96523.28
2023-02-25T14:55:41.598Z,96533.44
2023-02-25T14:58:46.655Z,96537.06
2023-02-25T15:01:48.045Z,96545.00
2023-02-25T15:04:42.964Z,96554.78
2023-02-25T15:07:21.992Z,96548.34
2023-02-25T15:10:18.507Z,96551.06
2023-02-25T15:13:06.562Z,96556.06
2023-02-25T15:16:08.915Z,96551.06
2023-02-25T15:19:08.997Z,96553.94
2023-02-25T15:21:40.878Z,96557.22
2023-02-25T15:24:12.548Z,96554.00
2023-02-25T15:26:44.826Z,96560.41
2023-02-25T15:29:42.745Z,96553.22
2023-02-25T15:32:24.317Z,96551.34
2023-02-25T15:34:58.480Z,96561.19
2023-02-25T15:37:59.924Z,96561.69
2023-02-25T15:40:50.582Z,96564.25
2023-02-25T15:43:53.111Z,96563.34
2023-02-25T15:46:43.254Z,96560.66
2023-02-25T15:49:22.085Z,96559.19
2023-02-25T15:51:52.628Z,96560.13
2023-02-25T15:54:53.043Z,96557.56
2023-02-25T15:57:38.306Z,96550.97
2023-02-25T16:00:44.374Z,96569.41
2023-02-25T16:03:42.485Z,96564.78
2023-02-25T16:06:19.880Z,96576.88
2023-02-25T16:08:53.535Z,96565.28
2023-02-25T16:11:29.388Z,96566.69
2023-02-25T16:14:01.333Z,96559.41
2023-02-25T16:16:33.372Z,96570.63
2023-02-25T16:19:04.364Z,96564.47
2023-02-25T16:21:39.978Z,96578.75
2023-02-25T16:24:11.001Z,96578.97
2023-02-25T16:26:45.491Z,96589.75
2023-02-25T16:29:33.890Z,96623.94
2023-02-25T19:04:56.101Z,96809.47
2023-02-25T19:07:26.929Z,96810.00
2023-02-25T19:09:55.801Z,96800.41
2023-02-25T19:12:25.861Z,96805.94
2023-02-25T19:14:58.395Z,96805.81
2023-02-25T19:19:48.484Z,96810.44
2023-02-25T19:22:17.119Z,96825.44
2023-02-25T19:24:47.797Z,96830.19
2023-02-25T19:27:20.515Z,96831.84
2023-02-25T19:29:50.327Z,96834.94
2023-02-25T19:32:19.890Z,96836.44
2023-02-25T19:34:50.198Z,96848.09
2023-02-25T19:37:20.524Z,96838.00
2023-02-25T19:39:48.975Z,96839.09
2023-02-25T19:42:17.413Z,96847.00
2023-02-25T19:44:45.895Z,96847.53
2023-02-25T19:47:14.673Z,96847.38
2023-02-25T19:49:43.180Z,96844.31
2023-02-25T19:52:13.041Z,96845.25
2023-02-25T19:54:41.578Z,96850.84
2023-02-25T19:57:11.577Z,96855.97
2023-02-25T19:59:40.091Z,96845.94
2023-02-25T20:02:08.746Z,96850.97
2023-02-25T20:04:37.654Z,96857.81
2023-02-25T20:07:06.186Z,96865.31
2023-02-25T20:09:36.390Z,96873.69
2023-02-25T20:12:04.981Z,96880.00
2023-02-25T20:14:33.783Z,96876.66
2023-02-25T20:17:02.455Z,96880.69
2023-02-25T20:19:32.859Z,96877.78
2023-02-25T20:22:03.801Z,96870.16
2023-02-25T20:24:32.295Z,96873.50
2023-02-25T20:27:02.450Z,96878.63
2023-02-25T20:29:31.357Z,96887.06
2023-02-25T20:32:00.084Z,96891.22
2023-02-25T20:34:29.386Z,96886.28
2023-02-25T20:37:00.987Z,96905.59
2023-02-25T20:39:49.244Z,96912.00
2023-02-25T20:42:20.986Z,96904.34
2023-02-25T20:44:51.424Z,96909.97
2023-02-25T20:47:22.384Z,96910.78
2023-02-25T20:49:51.776Z,96903.31
2023-02-25T20:52:20.987Z,96914.53
2023-02-25T20:54:50.534Z,96920.41
2023-02-25T20:57:22.251Z,96914.53
2023-02-25T20:59:52.678Z,96912.06
2023-02-25T21:02:21.650Z,96921.28
2023-02-25T21:04:50.381Z,96924.59
2023-02-25T21:07:19.112Z,96921.03
2023-02-25T21:09:47.732Z,96921.13
2023-02-25T21:12:16.267Z,96920.47
2023-02-25T21:14:46.079Z,96920.47
2023-02-25T21:17:14.613Z,96925.50
2023-02-25T21:19:43.645Z,96925.38
2023-02-25T21:22:12.184Z,96922.22
2023-02-25T21:24:40.709Z,96928.16
2023-02-25T21:27:09.211Z,96929.91
2023-02-25T21:29:38.574Z,96925.53
2023-02-25T21:32:08.682Z,96935.28
2023-02-25T21:34:37.754Z,96944.88
2023-02-25T21:37:06.183Z,96947.34
2023-02-25T21:39:34.801Z,96935.75
2023-02-25T21:42:03.292Z,96946.56
2023-02-25T21:44:31.699Z,96939.00
2023-02-25T21:47:00.183Z,96941.53
2023-02-25T21:49:31.784Z,96935.91
2023-02-25T21:52:00.348Z,96936.25
2023-02-25T21:54:28.853Z,96951.25
2023-02-25T21:56:57.330Z,96956.44
2023-02-25T21:59:27.023Z,96952.31
2023-02-25T22:01:55.449Z,96953.88
2023-02-25T22:04:24.197Z,96962.59
2023-02-25T22:06:54.183Z,96956.94
2023-02-25T22:09:22.683Z,96960.56
2023-02-25T22:11:51.172Z,96967.47
2023-02-25T22:14:19.650Z,96954.13
2023-02-25T22:16:48.193Z,96958.41
2023-02-25T22:19:16.735Z,96961.78
2023-02-25T22:21:45.295Z,96953.38
2023-02-25T22:24:15.347Z,96955.78
2023-02-25T22:26:45.760Z,96944.22
2023-02-25T22:29:14.604Z,96953.53
2023-02-25T22:31:43.234Z,96957.72
2023-02-25T22:34:11.782Z,96954.59
2023-02-25T22:36:40.302Z,96959.44
2023-02-25T22:39:10.386Z,96954.59
2023-02-25T22:41:40.164Z,96962.06
2023-02-25T22:44:08.682Z,96962.22
2023-02-25T22:46:38.749Z,96960.66
2023-02-25T22:49:08.581Z,96967.41
2023-02-25T22:51:40.448Z,96971.59
2023-02-25T22:54:09.486Z,96974.06
2023-02-25T22:56:38.950Z,96977.59
2023-02-25T22:59:08.821Z,96973.19
2023-02-25T23:01:37.914Z,96978.22
2023-02-25T23:04:07.811Z,96976.38
2023-02-25T23:06:45.105Z,96978.22
2023-02-25T23:09:14.760Z,96979.06
2023-02-25T23:11:45.103Z,96980.66
2023-02-25T23:14:15.779Z,96985.16
2023-02-25T23:16:47.112Z,96986.88
2023-02-25T23:19:17.549Z,96991.91
2023-02-25T23:21:45.884Z,96983.28
2023-02-25T23:24:17.314Z,96991.88
2023-02-25T23:26:47.776Z,97005.94
2023-02-25T23:29:17.857Z,96998.56
2023-02-25T23:31:48.385Z,97005.28
2023-02-25T23:37:15.295Z,97002.03
2023-02-25T23:39:44.515Z,97003.69
2023-02-25T23:42:13.003Z,96994.47
2023-02-25T23:44:41.500Z,96997.03
2023-02-25T23:47:10.003Z,96994.59
2023-02-25T23:49:38.559Z,97002.91
2023-02-25T23:52:07.127Z,97004.63
2023-02-25T23:54:37.078Z,96998.84
2023-02-25T23:57:05.543Z,96997.97
2023-02-25T23:59:34.267Z,97002.38
